グアダラハラ の空港の天気 - METARとTAF

ドン・ミゲル・イダルゴ・イ・コスティージャ国際空港 ( MMGL / GDL ) - メキシコ ハリスコ州グアダラハラ
飛行場実況気象(Metar)
観測時間04/21 11:42 CDT (04/21 16:42 UTC)
風向・風速西 4m/s
視程10km以上
天気現象
全天の4割程度の雲 雲底高度 9140m
気温27℃
湿度17%
気圧1024hPa
METARMMGL 211642Z 26007KT 10SM SCT300 27/00 A3025 RMK 8/001
過去の天気等 Google飛行場航空写真 Wunderground天気予報

過去48時間のMETAR

飛行場予報(TAF)
発表時間: 4/21 06:21 CDT (4/21 11:21 UTC)
予報対象時間: 21日7時 CDT ~ 22日13時 CDT
風向・風速西北西 3m/s
視程10km以上
なし
21日12時 CDT から
風向・風速西南西 5m/s
視程10km以上
全天の4割程度の雲 雲底高度 7620m
21日21時 CDT から
風向・風速西北西 3m/s
視程10km以上
全天の4割程度の雲 雲底高度 7620m
22日11時 CDT から
風向・風速西北西 5m/s
視程10km以上
全天の4割程度の雲 雲底高度 7620m
TAF MMGL 211121Z 2112/2218 30005KT P6SM SKC TX31/2121Z TN15/2112Z
FM211700 24010KT P6SM SCT250
FM220200 30005KT P6SM SCT250
FM221600 30010KT P6SM SCT250